createdAt,value
2019-01-30T00:01:23.226Z,4.97
2019-01-30T00:03:52.667Z,5.73
2019-01-30T00:06:22.344Z,5.40
2019-01-30T00:08:51.712Z,5.53
2019-01-30T00:11:21.063Z,4.87
2019-01-30T00:13:50.451Z,5.03
2019-01-30T00:16:19.808Z,5.13
2019-01-30T00:18:49.173Z,5.33
2019-01-30T00:21:18.527Z,5.00
2019-01-30T00:23:47.892Z,5.73
2019-01-30T00:26:17.562Z,5.93
2019-01-30T00:28:46.943Z,5.50
2019-01-30T00:31:16.617Z,5.43
2019-01-30T00:33:46.224Z,5.43
2019-01-30T00:36:15.593Z,5.53
2019-01-30T00:38:44.976Z,5.80
2019-01-30T00:41:14.695Z,6.30
2019-01-30T00:43:44.094Z,6.90
2019-01-30T00:46:13.469Z,7.37
2019-01-30T00:48:43.087Z,6.30
2019-01-30T00:51:12.432Z,6.73
2019-01-30T00:53:41.869Z,6.53
2019-01-30T00:56:11.793Z,7.70
2019-01-30T00:58:41.168Z,8.25
2019-01-30T01:01:10.599Z,7.40
2019-01-30T01:03:40.308Z,7.60
2019-01-30T01:06:10.049Z,8.47
2019-01-30T01:08:39.512Z,7.92
2019-01-30T01:11:08.926Z,8.70
2019-01-30T01:13:38.293Z,8.83
2019-01-30T01:16:07.662Z,8.70
2019-01-30T01:18:37.031Z,9.05
2019-01-30T01:21:06.826Z,9.83
2019-01-30T01:23:36.168Z,9.20
2019-01-30T01:26:05.537Z,10.20
2019-01-30T01:28:34.918Z,10.90
2019-01-30T01:31:04.279Z,10.73
2019-01-30T01:33:33.898Z,11.07
2019-01-30T01:36:03.263Z,11.13
2019-01-30T01:38:33.568Z,11.20
2019-01-30T01:41:03.343Z,11.65
2019-01-30T01:43:33.637Z,12.18
2019-01-30T01:46:03.494Z,11.70
2019-01-30T01:48:33.499Z,11.40
2019-01-30T01:51:03.531Z,11.40
2019-01-30T01:53:33.673Z,10.95
2019-01-30T01:56:03.651Z,11.15
2019-01-30T01:58:33.866Z,11.35
2019-01-30T02:01:04.402Z,11.33
2019-01-30T02:03:34.110Z,12.00
2019-01-30T02:06:04.725Z,11.53
2019-01-30T02:08:34.201Z,11.15
2019-01-30T02:11:04.888Z,11.50
2019-01-30T02:13:34.282Z,11.93
2019-01-30T02:16:04.368Z,11.70
2019-01-30T02:18:34.684Z,11.48
2019-01-30T02:21:04.545Z,11.90
2019-01-30T02:23:34.438Z,11.48
2019-01-30T02:26:04.639Z,12.05
2019-01-30T02:28:34.570Z,12.03
2019-01-30T02:31:04.718Z,11.68
2019-01-30T02:33:34.650Z,12.33
2019-01-30T02:36:05.412Z,12.40
2019-01-30T02:38:35.133Z,11.93
2019-01-30T02:41:04.816Z,11.00
2019-01-30T02:43:34.830Z,11.93
2019-01-30T02:46:05.191Z,10.75
2019-01-30T02:48:34.942Z,11.80
2019-01-30T02:51:05.041Z,11.78
2019-01-30T02:53:35.030Z,11.90
2019-01-30T02:56:05.154Z,12.05
2019-01-30T02:58:35.157Z,12.78
2019-01-30T03:01:05.338Z,12.43
2019-01-30T03:03:35.227Z,11.90
2019-01-30T03:06:05.516Z,11.90
2019-01-30T03:08:35.397Z,12.25
2019-01-30T03:11:05.670Z,12.15
2019-01-30T03:13:35.569Z,11.20
2019-01-30T03:16:05.616Z,11.97
2019-01-30T03:18:35.648Z,12.25
2019-01-30T03:21:05.789Z,12.40
2019-01-30T03:23:35.736Z,11.40
2019-01-30T03:26:05.859Z,11.45
2019-01-30T03:28:36.054Z,11.68
2019-01-30T03:31:16.805Z,12.37
2019-01-30T03:33:37.054Z,11.47
2019-01-30T03:36:06.424Z,12.77
2019-01-30T03:38:35.987Z,11.80
2019-01-30T03:41:06.083Z,11.88
2019-01-30T03:43:36.520Z,12.50
2019-01-30T03:46:06.229Z,11.68
2019-01-30T03:48:36.500Z,11.50
2019-01-30T03:51:06.542Z,12.15
2019-01-30T03:53:36.303Z,11.22
2019-01-30T03:56:06.390Z,10.80
2019-01-30T03:58:36.663Z,9.85
2019-01-30T04:01:06.565Z,10.38
2019-01-30T04:03:36.511Z,11.78
2019-01-30T04:06:06.695Z,10.45
2019-01-30T04:08:36.709Z,11.63
2019-01-30T04:11:06.761Z,11.48
2019-01-30T04:13:36.687Z,11.03
2019-01-30T04:16:07.042Z,10.93
2019-01-30T04:18:36.863Z,10.32
2019-01-30T04:21:06.852Z,11.85
2019-01-30T04:23:36.971Z,11.55
2019-01-30T04:26:07.208Z,11.65
2019-01-30T04:28:37.185Z,11.85
2019-01-30T04:31:07.075Z,10.50
2019-01-30T04:33:37.117Z,11.57
2019-01-30T04:36:07.174Z,10.48
2019-01-30T04:38:37.214Z,11.05
2019-01-30T04:41:07.246Z,11.60
2019-01-30T04:43:37.277Z,11.35
2019-01-30T04:46:07.454Z,10.33
2019-01-30T04:48:37.469Z,11.83
2019-01-30T04:51:07.437Z,11.10
2019-01-30T04:53:37.550Z,11.25
2019-01-30T04:56:07.601Z,10.32
2019-01-30T04:58:37.646Z,10.55
2019-01-30T05:01:07.054Z,9.97
2019-01-30T05:03:36.475Z,10.70
2019-01-30T05:06:05.997Z,9.53
2019-01-30T05:08:35.429Z,10.87
2019-01-30T05:11:04.778Z,10.07
2019-01-30T05:13:34.137Z,9.90
2019-01-30T05:16:03.787Z,10.30
2019-01-30T05:18:33.147Z,9.73
2019-01-30T05:21:02.526Z,9.63
2019-01-30T05:23:31.888Z,10.07
2019-01-30T05:26:03.405Z,9.43
2019-01-30T05:28:34.134Z,9.20
2019-01-30T05:31:03.623Z,9.07
2019-01-30T05:33:38.661Z,9.83
2019-01-30T05:36:13.037Z,8.93
2019-01-30T05:38:42.575Z,9.87
2019-01-30T05:41:15.797Z,9.70
2019-01-30T05:43:48.197Z,9.00
2019-01-30T05:46:17.980Z,9.95
2019-01-30T05:49:30.985Z,9.75
2019-01-30T05:52:19.292Z,9.27
2019-01-30T05:54:56.084Z,10.40
2019-01-30T06:12:13.067Z,10.50
2019-01-30T06:14:42.427Z,9.87
2019-01-30T06:17:12.404Z,11.05
2019-01-30T06:19:42.678Z,9.95
2019-01-30T06:22:12.844Z,11.10
2019-01-30T06:24:44.258Z,10.60
2019-01-30T06:27:13.775Z,11.40
2019-01-30T06:29:43.479Z,12.23
2019-01-30T06:32:21.721Z,12.37
2019-01-30T06:34:44.144Z,11.63
2019-01-30T06:37:18.252Z,13.32
2019-01-30T06:39:46.892Z,11.40
2019-01-30T06:42:16.263Z,13.00
2019-01-30T06:44:45.644Z,12.03
2019-01-30T06:47:15.051Z,11.93
2019-01-30T06:49:45.097Z,12.53
2019-01-30T06:52:14.764Z,11.17
2019-01-30T06:54:45.087Z,12.07
2019-01-30T06:57:17.566Z,11.30
2019-01-30T06:59:49.781Z,11.43
2019-01-30T07:02:21.136Z,11.70
2019-01-30T07:04:50.693Z,11.03
2019-01-30T07:07:22.132Z,12.00
2019-01-30T07:09:52.897Z,11.45
2019-01-30T07:12:24.589Z,10.67
2019-01-30T07:14:56.251Z,10.30
2019-01-30T07:17:26.161Z,11.27
2019-01-30T07:19:57.459Z,11.20
2019-01-30T07:22:29.057Z,11.70
2019-01-30T07:24:58.513Z,13.85
2019-01-30T07:27:32.984Z,13.03
2019-01-30T07:30:02.723Z,11.93
2019-01-30T07:32:42.167Z,11.37
2019-01-30T07:35:09.761Z,13.43
2019-01-30T07:37:39.417Z,11.97
2019-01-30T07:40:13.659Z,12.20
2019-01-30T07:42:43.695Z,11.87
2019-01-30T07:45:26.492Z,11.80
2019-01-30T07:47:57.896Z,12.37
2019-01-30T07:50:28.095Z,11.18
2019-01-30T07:52:59.217Z,10.37
2019-01-30T07:55:29.046Z,9.90
2019-01-30T07:58:00.226Z,10.00
2019-01-30T08:00:33.023Z,10.37
2019-01-30T08:03:03.254Z,10.13
2019-01-30T08:05:32.867Z,8.80
2019-01-30T08:08:04.531Z,10.27
2019-01-30T08:10:34.089Z,10.40
2019-01-30T08:13:03.785Z,11.00
2019-01-30T08:15:33.742Z,10.98
2019-01-30T08:18:03.644Z,10.10
2019-01-30T08:20:33.197Z,9.77
2019-01-30T08:23:05.190Z,11.03
2019-01-30T08:25:35.373Z,10.10
2019-01-30T08:28:05.880Z,10.67
2019-01-30T08:30:36.477Z,10.87
2019-01-30T08:33:06.755Z,10.77
2019-01-30T08:35:37.132Z,11.30
2019-01-30T08:38:07.202Z,11.27
2019-01-30T08:40:36.685Z,11.83
2019-01-30T08:43:08.328Z,10.78
2019-01-30T08:45:38.111Z,11.45
2019-01-30T08:48:08.504Z,12.60
2019-01-30T08:50:38.446Z,11.50
2019-01-30T08:53:07.989Z,11.40
2019-01-30T08:55:38.099Z,11.83
2019-01-30T08:58:07.992Z,13.13
2019-01-30T09:00:37.969Z,12.30
2019-01-30T09:03:14.525Z,14.03
2019-01-30T09:05:38.968Z,13.77
2019-01-30T09:08:08.988Z,12.73
2019-01-30T09:10:39.165Z,13.83
2019-01-30T09:13:09.388Z,15.03
2019-01-30T09:15:39.164Z,14.23
2019-01-30T09:18:08.955Z,14.40
2019-01-30T09:20:38.795Z,14.30
2019-01-30T09:23:08.481Z,13.87
2019-01-30T09:25:38.239Z,12.37
2019-01-30T09:28:08.000Z,14.13
2019-01-30T09:30:41.143Z,13.57
2019-01-30T09:33:11.424Z,13.03
2019-01-30T09:35:41.409Z,13.50
2019-01-30T09:38:11.135Z,13.22
2019-01-30T09:40:40.935Z,13.70
2019-01-30T09:43:10.815Z,15.70
2019-01-30T09:45:40.506Z,13.80
2019-01-30T09:48:10.444Z,13.73
2019-01-30T09:50:40.138Z,13.93
2019-01-30T09:53:10.486Z,13.10
2019-01-30T09:55:40.872Z,13.50
2019-01-30T09:58:11.646Z,13.63
2019-01-30T10:00:41.690Z,13.00
2019-01-30T10:03:11.511Z,13.53
2019-01-30T10:05:44.450Z,13.45
2019-01-30T10:08:14.025Z,13.63
2019-01-30T10:10:44.181Z,13.70
2019-01-30T10:13:14.950Z,13.30
2019-01-30T10:15:46.860Z,13.98
2019-01-30T10:18:16.902Z,13.00
2019-01-30T10:20:49.228Z,14.53
2019-01-30T10:23:19.069Z,13.93
2019-01-30T10:25:48.812Z,13.87
2019-01-30T10:28:18.900Z,13.68
2019-01-30T10:30:49.524Z,14.30
2019-01-30T10:33:19.900Z,15.03
2019-01-30T10:35:52.189Z,14.90
2019-01-30T10:38:22.213Z,15.43
2019-01-30T10:40:51.844Z,14.73
2019-01-30T10:43:23.431Z,15.05
2019-01-30T10:45:56.075Z,14.73
2019-01-30T10:48:25.907Z,15.00
2019-01-30T10:50:55.651Z,15.73
2019-01-30T10:53:25.555Z,14.73
2019-01-30T10:55:55.625Z,13.67
2019-01-30T10:58:28.630Z,13.63
2019-01-30T11:00:58.947Z,14.27
2019-01-30T11:03:28.822Z,12.87
2019-01-30T11:06:01.985Z,14.63
2019-01-30T11:08:31.575Z,14.50
2019-01-30T11:11:07.667Z,14.93
2019-01-30T11:13:33.447Z,14.78
2019-01-30T11:16:02.971Z,14.10
2019-01-30T11:18:32.721Z,13.93
2019-01-30T11:21:02.308Z,15.60
2019-01-30T11:23:31.977Z,14.90
2019-01-30T11:26:01.594Z,14.33
2019-01-30T11:28:31.641Z,13.20
2019-01-30T11:31:02.800Z,14.47
2019-01-30T11:33:33.955Z,13.97
2019-01-30T11:36:06.279Z,13.75
2019-01-30T11:38:36.338Z,14.80
2019-01-30T11:41:06.624Z,14.83
2019-01-30T11:43:36.833Z,13.23
2019-01-30T11:46:06.787Z,14.73
2019-01-30T11:48:36.313Z,14.18
2019-01-30T11:51:06.145Z,17.83
2019-01-30T11:53:35.993Z,16.10
2019-01-30T11:56:07.541Z,16.10
2019-01-30T11:58:39.888Z,14.63
2019-01-30T12:01:09.934Z,14.56
2019-01-30T12:03:39.583Z,14.97
2019-01-30T12:06:09.255Z,14.43
2019-01-30T12:08:38.852Z,14.23
2019-01-30T12:11:14.362Z,15.83
2019-01-30T12:13:43.874Z,15.63
2019-01-30T12:16:13.581Z,15.00
2019-01-30T12:18:44.938Z,14.23
2019-01-30T12:21:14.532Z,15.27
2019-01-30T12:23:44.035Z,15.40
2019-01-30T12:26:13.693Z,16.75
2019-01-30T12:28:43.434Z,16.07
2019-01-30T12:31:13.038Z,16.03
2019-01-30T12:34:07.510Z,15.50
2019-01-30T12:36:57.154Z,15.43
2019-01-30T12:39:50.138Z,16.50
2019-01-30T12:42:29.824Z,17.27
2019-01-30T12:48:10.892Z,17.42
2019-01-30T12:50:40.875Z,18.10
2019-01-30T12:53:10.903Z,18.33
2019-01-30T12:55:46.547Z,16.70
2019-01-30T12:58:15.434Z,16.45
2019-01-30T13:00:47.943Z,16.27
2019-01-30T13:03:17.805Z,15.50
2019-01-30T13:05:47.405Z,16.77
2019-01-30T13:08:16.946Z,17.07
2019-01-30T13:10:47.359Z,16.77
2019-01-30T13:13:16.964Z,16.87
2019-01-30T13:15:46.536Z,17.83
2019-01-30T13:18:18.635Z,16.47
2019-01-30T13:20:47.466Z,16.47
2019-01-30T13:23:17.130Z,16.27
2019-01-30T13:25:46.745Z,17.95
2019-01-30T13:28:16.405Z,16.77
2019-01-30T13:30:46.340Z,18.80
2019-01-30T13:33:16.277Z,19.17
2019-01-30T13:35:46.757Z,19.13
2019-01-30T13:38:16.288Z,21.00
2019-01-30T13:40:49.668Z,21.00
2019-01-30T13:43:19.321Z,20.73
2019-01-30T13:45:48.940Z,22.40
2019-01-30T13:48:20.032Z,22.23
2019-01-30T13:50:58.907Z,22.03
2019-01-30T13:53:24.196Z,21.60
2019-01-30T13:55:56.067Z,23.03
2019-01-30T13:58:25.391Z,21.93
2019-01-30T14:00:55.177Z,22.40
2019-01-30T14:03:24.854Z,21.53
2019-01-30T14:05:54.509Z,23.63
2019-01-30T14:08:24.429Z,22.87
2019-01-30T14:10:54.447Z,24.50
2019-01-30T14:13:24.087Z,25.53
2019-01-30T14:15:54.234Z,26.00
2019-01-30T14:18:24.214Z,26.33
2019-01-30T14:20:53.975Z,27.10
2019-01-30T14:23:24.009Z,25.30
2019-01-30T14:25:53.625Z,25.83
2019-01-30T14:28:25.164Z,26.57
2019-01-30T14:30:54.936Z,26.53
2019-01-30T14:33:24.502Z,28.80
2019-01-30T14:35:54.104Z,30.83
2019-01-30T14:38:23.869Z,31.30
2019-01-30T14:40:53.470Z,30.63
2019-01-30T14:43:23.104Z,32.07
2019-01-30T14:45:55.322Z,30.43
2019-01-30T14:48:24.841Z,30.30
2019-01-30T14:51:13.537Z,30.73
2019-01-30T14:53:42.953Z,29.47
2019-01-30T14:56:12.390Z,30.40
2019-01-30T14:58:41.785Z,30.57
2019-01-30T15:01:11.181Z,32.20
2019-01-30T15:03:40.946Z,32.38
2019-01-30T15:06:10.351Z,32.93
2019-01-30T15:08:39.745Z,32.97
2019-01-30T15:11:09.101Z,33.37
2019-01-30T15:13:38.484Z,32.43
2019-01-30T15:16:08.154Z,32.00
2019-01-30T15:18:37.518Z,30.53
2019-01-30T15:21:07.967Z,29.45
2019-01-30T15:23:37.360Z,29.57
2019-01-30T15:26:06.744Z,27.43
2019-01-30T15:28:36.141Z,25.07
2019-01-30T15:31:05.897Z,25.57
2019-01-30T15:33:35.365Z,24.97
2019-01-30T15:36:04.896Z,23.43
2019-01-30T15:38:34.285Z,22.60
2019-01-30T15:41:03.658Z,21.77
2019-01-30T15:43:35.297Z,21.47
2019-01-30T15:46:04.212Z,21.43
2019-01-30T15:48:33.696Z,20.37
2019-01-30T15:51:03.329Z,20.30
2019-01-30T15:53:32.678Z,18.60
2019-01-30T15:56:02.052Z,19.30
2019-01-30T15:58:31.419Z,18.63
2019-01-30T16:01:05.698Z,18.87
2019-01-30T16:03:35.141Z,18.90
2019-01-30T16:06:05.246Z,18.87
2019-01-30T16:08:34.622Z,17.92
2019-01-30T16:11:04.448Z,19.63
2019-01-30T16:13:33.824Z,19.67
2019-01-30T16:16:05.505Z,18.10
2019-01-30T16:18:34.891Z,17.63
2019-01-30T16:21:04.331Z,19.40
2019-01-30T16:23:33.782Z,17.60
2019-01-30T16:26:03.148Z,16.10
2019-01-30T16:28:32.527Z,16.10
2019-01-30T16:31:01.889Z,16.02
2019-01-30T16:33:31.263Z,15.80
2019-01-30T16:36:00.970Z,15.73
2019-01-30T16:38:30.350Z,16.40
2019-01-30T16:40:59.715Z,15.33
2019-01-30T16:43:29.099Z,14.83
2019-01-30T16:45:58.792Z,16.27
2019-01-30T16:48:30.854Z,15.83
2019-01-30T16:50:59.330Z,15.30
2019-01-30T16:53:28.715Z,16.30
2019-01-30T16:55:58.085Z,17.23
2019-01-30T16:58:27.983Z,16.25
2019-01-30T17:01:01.281Z,15.35
2019-01-30T17:03:30.663Z,16.77
2019-01-30T17:06:07.017Z,15.20
2019-01-30T17:08:31.444Z,13.63
2019-01-30T17:11:00.812Z,14.60
2019-01-30T17:13:30.922Z,14.97
2019-01-30T17:16:00.276Z,14.53
2019-01-30T17:18:29.665Z,14.78
2019-01-30T17:20:59.041Z,14.67
2019-01-30T17:23:28.403Z,14.77
2019-01-30T17:25:58.221Z,14.40
2019-01-30T17:28:27.603Z,14.90
2019-01-30T17:31:00.886Z,15.43
2019-01-30T17:33:30.244Z,13.87
2019-01-30T17:35:59.611Z,13.90
2019-01-30T17:38:28.996Z,15.00
2019-01-30T17:40:58.371Z,14.20
2019-01-30T17:43:27.761Z,14.00
2019-01-30T17:45:57.143Z,13.50
2019-01-30T17:48:26.530Z,14.27
2019-01-30T17:50:56.131Z,13.27
2019-01-30T17:53:25.512Z,13.83
2019-01-30T17:55:54.945Z,13.15
2019-01-30T17:58:24.669Z,12.27
2019-01-30T18:00:55.927Z,12.82
2019-01-30T18:03:25.299Z,12.80
2019-01-30T18:05:54.676Z,11.40
2019-01-30T18:08:24.068Z,12.77
2019-01-30T18:10:53.424Z,11.83
2019-01-30T18:13:22.810Z,12.37
2019-01-30T18:15:52.589Z,12.03
2019-01-30T18:18:22.317Z,12.47
2019-01-30T18:20:51.871Z,11.93
2019-01-30T18:23:22.433Z,11.83
2019-01-30T18:25:51.799Z,11.90
2019-01-30T18:28:21.176Z,11.93
2019-01-30T18:30:50.784Z,11.33
2019-01-30T18:33:20.483Z,13.30
2019-01-30T18:35:49.894Z,12.10
2019-01-30T18:38:19.409Z,12.40
2019-01-30T18:40:48.729Z,12.03
2019-01-30T18:43:18.104Z,12.13
2019-01-30T18:45:47.479Z,12.75
2019-01-30T18:48:18.298Z,12.90
2019-01-30T18:50:48.009Z,12.17
2019-01-30T18:53:18.366Z,12.93
2019-01-30T18:55:48.074Z,11.93
2019-01-30T18:58:17.535Z,11.70
2019-01-30T19:00:46.968Z,11.97
2019-01-30T19:03:16.410Z,13.67
2019-01-30T19:05:45.771Z,12.70
2019-01-30T19:08:15.422Z,11.58
2019-01-30T19:10:44.904Z,11.53
2019-01-30T19:13:14.292Z,12.80
2019-01-30T19:15:43.705Z,12.17
2019-01-30T19:18:13.168Z,12.43
2019-01-30T19:20:47.286Z,11.40
2019-01-30T19:23:16.669Z,10.87
2019-01-30T19:25:46.218Z,11.00
2019-01-30T19:28:16.327Z,12.37
2019-01-30T19:30:45.979Z,11.20
2019-01-30T19:33:15.715Z,11.85
2019-01-30T19:35:45.176Z,11.75
2019-01-30T19:38:14.915Z,10.88
2019-01-30T19:40:44.325Z,12.00
2019-01-30T19:43:13.741Z,11.40
2019-01-30T19:45:44.015Z,11.33
2019-01-30T19:48:13.382Z,11.90
2019-01-30T19:50:42.818Z,11.47
2019-01-30T19:53:12.345Z,11.40
2019-01-30T19:55:42.362Z,11.13
2019-01-30T19:58:12.283Z,11.13
2019-01-30T20:00:45.451Z,11.17
2019-01-30T20:03:19.074Z,10.10
2019-01-30T20:05:48.482Z,10.57
2019-01-30T20:08:18.460Z,11.10
2019-01-30T20:10:47.907Z,11.83
2019-01-30T20:13:17.279Z,12.60
2019-01-30T20:15:46.731Z,11.50
2019-01-30T20:18:16.099Z,11.13
2019-01-30T20:20:45.535Z,9.87
2019-01-30T20:23:15.088Z,10.78
2019-01-30T20:25:44.749Z,10.13
2019-01-30T20:28:14.106Z,9.93
2019-01-30T20:30:45.363Z,11.05
2019-01-30T20:33:14.729Z,10.13
2019-01-30T20:35:44.170Z,9.50
2019-01-30T20:38:13.556Z,9.83
2019-01-30T20:40:45.872Z,10.50
2019-01-30T20:43:15.557Z,9.18
2019-01-30T20:45:44.932Z,9.53
2019-01-30T20:48:14.285Z,9.83
2019-01-30T20:50:46.677Z,9.40
2019-01-30T20:53:16.044Z,8.96
2019-01-30T20:55:45.752Z,11.13
2019-01-30T20:58:15.182Z,9.33
2019-01-30T21:00:44.939Z,13.93
2019-01-30T21:03:14.315Z,10.10
2019-01-30T21:05:45.061Z,8.67
2019-01-30T21:08:14.622Z,9.63
2019-01-30T21:10:43.992Z,9.07
2019-01-30T21:13:13.429Z,9.63
2019-01-30T21:15:42.919Z,9.60
2019-01-30T21:18:12.969Z,8.73
2019-01-30T21:20:42.345Z,9.63
2019-01-30T21:23:11.702Z,8.13
2019-01-30T21:25:41.158Z,10.03
2019-01-30T21:28:10.684Z,8.53
2019-01-30T21:30:41.800Z,8.38
2019-01-30T21:33:11.077Z,8.38
2019-01-30T21:35:41.751Z,8.54
2019-01-30T21:38:11.233Z,8.53
2019-01-30T21:40:40.966Z,8.83
2019-01-30T21:43:10.334Z,8.37
2019-01-30T21:45:39.697Z,8.23
2019-01-30T21:48:09.059Z,7.47
2019-01-30T21:50:38.422Z,7.87
2019-01-30T21:53:07.780Z,8.30
2019-01-30T22:00:55.265Z,7.63
2019-01-30T22:03:24.593Z,7.28
2019-01-30T22:05:53.967Z,7.57
2019-01-30T22:08:23.401Z,7.73
2019-01-30T22:10:53.962Z,6.97
2019-01-30T22:13:23.353Z,6.30
2019-01-30T22:15:52.697Z,6.80
2019-01-30T22:18:22.127Z,6.13
2019-01-30T22:20:51.516Z,6.30
2019-01-30T22:23:20.870Z,6.83
2019-01-30T22:25:50.236Z,6.47
2019-01-30T22:28:19.605Z,6.50
2019-01-30T22:30:48.984Z,6.15
2019-01-30T22:33:18.332Z,6.30
2019-01-30T22:35:47.770Z,5.77
2019-01-30T22:38:17.065Z,5.87
2019-01-30T22:40:46.442Z,5.73
2019-01-30T22:43:15.819Z,6.40
2019-01-30T22:45:45.184Z,5.57
2019-01-30T22:48:14.544Z,5.83
2019-01-30T22:50:43.939Z,5.57
2019-01-30T22:53:13.429Z,5.73
2019-01-30T22:55:42.764Z,5.35
2019-01-30T22:58:12.391Z,5.20
2019-01-30T23:00:56.949Z,5.70
2019-01-30T23:03:42.834Z,5.37
2019-01-30T23:06:40.946Z,5.53
2019-01-30T23:09:38.291Z,5.33
2019-01-30T23:12:30.301Z,6.20
2019-01-30T23:15:15.626Z,5.90
2019-01-30T23:18:05.164Z,5.93
2019-01-30T23:20:36.345Z,5.77
2019-01-30T23:23:42.349Z,6.00
2019-01-30T23:26:19.314Z,5.17
2019-01-30T23:29:14.303Z,4.90
2019-01-30T23:32:10.702Z,5.97
2019-01-30T23:35:11.378Z,5.13
2019-01-30T23:38:13.651Z,4.92
2019-01-30T23:40:53.688Z,5.20
2019-01-30T23:43:48.347Z,4.35
2019-01-30T23:46:47.815Z,5.17
2019-01-30T23:49:36.637Z,4.67
2019-01-30T23:52:16.450Z,5.00
2019-01-30T23:55:23.900Z,4.70
2019-01-30T23:58:16.397Z,4.77
